Terminal Aerodrome Forecast
Issued by NWS

Current Version | Previous Version | Text Only | Print | Product List | Glossary On
Versions: 1 2 3 4 5 6 7 8 9 10 11 12 13 14 15 16 17 18 19 20 21 22 23 24 25 26
271
FTUS45 KREV 240820 AAA
TAFTVL
TAF AMD
KTVL 240820Z 2408/2506 VRB03KT P6SM -RA OVC025
     FM241200 VRB04KT P6SM VCSH SCT030 BKN050
     FM242100 25009KT P6SM VCTS SCT030 BKN050CB
     FM250000 18005KT P6SM VCSH OVC025=

USA.gov is the U.S. government's official web portal to all federal, state and local government web resources and services.